Gladstone, Alberta

Past 24 Hour Conditions

Date / Time
(MST)
Conditions Temp
(°C)
Humidity
(%)
Dew Point
(°C)
Wind
(km/h)
Pressure
(kPa)
Vis
(km)
Wind Chill
25 November 2014
22:00 N/A -12   90 -13 3 N/A N/A -14
21:00 N/A -11 87 -13 5 N/A N/A -14
20:00 N/A -11 90 -12 4 N/A N/A -14
19:00 N/A -11 88 -13 calm N/A N/A *
18:00 N/A -11 88 -12 3 N/A N/A -12
17:00 N/A -10 87 -12 3 N/A N/A -12
16:00 N/A -10 85 -12 6 N/A N/A -13
15:00 N/A -10 82 -12 6 N/A N/A -13
14:00 N/A -10 85 -12 9 N/A N/A -15
13:00 N/A -10 85 -12 14 N/A N/A -17
12:00 N/A -10 87 -12 15 N/A N/A -17
11:00 N/A -10 88 -12 7 N/A N/A -14
10:00 N/A -10 89 -11 11 N/A N/A -15
9:00 N/A -9 90 -11 15 N/A N/A -16
8:00 N/A -8 91 -9 10 N/A N/A -12
7:00 N/A -7 91 -8 13 N/A N/A -13
6:00 N/A -7 91 -8 14 N/A N/A -13
5:00 N/A -6 93 -7 15 N/A N/A -12
4:00 N/A -5 95 -6 7 N/A N/A -8
3:00 N/A -5 94 -6 5 N/A N/A -7
2:00 N/A -5 93 -6 6 N/A N/A -7
1:00 N/A -5 93 -6 6 N/A N/A -7
00:00 N/A -4 92 -5 3 N/A N/A -5
24 November 2014
23:00 N/A -3   88 -5 9 N/A N/A -7
22:00 N/A -4 92 -5 14 N/A N/A -9
N/A Not available
↑ Highest temperature
↓ Lowest temperature
* Value not significant.

If you require additional historical weather information, please visit Climate Data Online.

Date modified: